createdAt,value
2023-03-15T00:00:50.983Z,9.20
2023-03-15T00:03:18.881Z,5.70
2023-03-15T00:05:48.425Z,6.60
2023-03-15T00:08:17.189Z,9.07
2023-03-15T00:10:46.076Z,9.43
2023-03-15T00:13:17.333Z,10.80
2023-03-15T00:15:49.211Z,8.87
2023-03-15T00:18:17.660Z,11.77
2023-03-15T00:20:47.154Z,7.50
2023-03-15T00:23:15.933Z,8.93
2023-03-15T00:25:45.463Z,6.43
2023-03-15T00:28:13.647Z,7.33
2023-03-15T00:30:43.307Z,9.53
2023-03-15T00:33:15.091Z,8.10
2023-03-15T00:35:44.856Z,12.60
2023-03-15T00:38:13.668Z,5.90
2023-03-15T00:40:43.505Z,7.60
2023-03-15T00:43:11.467Z,8.13
2023-03-15T00:45:39.862Z,6.50
2023-03-15T00:48:10.062Z,4.40
2023-03-15T00:50:38.004Z,5.90
2023-03-15T00:53:05.851Z,14.73
2023-03-15T00:55:33.775Z,9.03
2023-03-15T00:58:01.669Z,8.13
2023-03-15T01:00:32.370Z,7.20
2023-03-15T01:03:00.771Z,9.53
2023-03-15T01:05:30.060Z,6.23
2023-03-15T01:07:57.920Z,7.53
2023-03-15T01:10:25.759Z,4.83
2023-03-15T01:12:53.765Z,7.13
2023-03-15T01:15:21.793Z,4.40
2023-03-15T01:17:49.788Z,6.37
2023-03-15T01:20:18.689Z,8.30
2023-03-15T01:22:47.906Z,4.93
2023-03-15T01:25:16.035Z,6.67
2023-03-15T01:27:45.482Z,3.57
2023-03-15T01:30:13.947Z,2.93
2023-03-15T01:32:42.063Z,4.40
2023-03-15T01:35:10.367Z,6.60
2023-03-15T01:37:38.240Z,2.90
2023-03-15T01:40:09.831Z,4.83
2023-03-15T01:42:52.440Z,9.70
2023-03-15T01:45:55.976Z,1.47
2023-03-15T01:48:27.450Z,3.70
2023-03-15T01:50:55.956Z,3.30
2023-03-15T01:53:24.254Z,3.27
2023-03-15T01:55:54.890Z,2.90
2023-03-15T01:58:29.562Z,6.90
2023-03-15T02:00:58.118Z,4.90
2023-03-15T02:03:27.929Z,8.90
2023-03-15T02:05:58.940Z,9.43
2023-03-15T02:08:44.264Z,9.30
2023-03-15T02:11:14.832Z,5.67
2023-03-15T02:13:43.781Z,4.20
2023-03-15T02:16:12.456Z,5.07
2023-03-15T02:18:48.668Z,4.43
2023-03-15T02:21:27.012Z,5.47
2023-03-15T02:24:03.102Z,11.13
2023-03-15T02:26:36.347Z,4.20
2023-03-15T02:29:05.641Z,5.90
2023-03-15T02:31:38.083Z,7.33
2023-03-15T02:34:06.836Z,5.90
2023-03-15T02:36:35.613Z,2.30
2023-03-15T02:39:13.538Z,8.70
2023-03-15T02:41:44.197Z,6.40
2023-03-15T02:44:16.055Z,5.37
2023-03-15T02:46:44.020Z,6.87
2023-03-15T02:49:12.892Z,9.07
2023-03-15T02:51:40.732Z,9.50
2023-03-15T02:54:08.731Z,5.93
2023-03-15T02:56:36.529Z,4.73
2023-03-15T02:59:04.567Z,9.33
2023-03-15T03:01:37.145Z,8.40
2023-03-15T03:04:05.331Z,2.83
2023-03-15T03:06:33.156Z,7.50
2023-03-15T03:09:04.757Z,14.90
2023-03-15T03:11:33.009Z,5.60
2023-03-15T03:14:00.897Z,5.77
2023-03-15T03:16:28.991Z,5.53
2023-03-15T03:18:58.180Z,3.37
2023-03-15T03:21:26.430Z,2.97
2023-03-15T03:23:54.721Z,9.73
2023-03-15T03:26:27.877Z,2.63
2023-03-15T03:28:56.942Z,6.27
2023-03-15T03:31:27.194Z,3.73
2023-03-15T03:33:57.969Z,9.33
2023-03-15T03:36:26.716Z,4.80
2023-03-15T03:38:55.157Z,8.43
2023-03-15T03:41:23.040Z,8.60
2023-03-15T03:43:51.252Z,11.70
2023-03-15T03:46:20.588Z,4.60
2023-03-15T03:48:52.698Z,8.10
2023-03-15T03:51:21.959Z,8.10
2023-03-15T03:53:49.879Z,6.00
2023-03-15T03:56:17.808Z,7.20
2023-03-15T03:58:45.668Z,5.00
2023-03-15T04:01:22.155Z,7.20
2023-03-15T04:03:52.671Z,4.33
2023-03-15T04:06:23.788Z,6.33
2023-03-15T04:08:51.870Z,3.13
2023-03-15T04:11:29.393Z,2.67
2023-03-15T04:14:01.105Z,5.00
2023-03-15T04:16:29.462Z,7.63
2023-03-15T04:19:07.225Z,5.83
2023-03-15T04:21:38.171Z,8.43
2023-03-15T04:24:20.186Z,3.50
2023-03-15T04:27:06.516Z,3.93
2023-03-15T04:29:54.703Z,5.53
2023-03-15T04:32:42.521Z,4.13
2023-03-15T04:35:32.622Z,3.80
2023-03-15T04:38:13.313Z,2.53
2023-03-15T04:41:00.977Z,2.50
2023-03-15T04:43:39.170Z,4.03
2023-03-15T04:46:25.302Z,5.80
2023-03-15T04:49:19.584Z,2.60
2023-03-15T04:52:12.196Z,3.80
2023-03-15T04:55:07.771Z,2.60
2023-03-15T04:57:48.321Z,4.73
2023-03-15T05:00:34.103Z,4.43
2023-03-15T05:03:12.479Z,8.03
2023-03-15T05:06:07.990Z,11.07
2023-03-15T05:08:59.028Z,7.40
2023-03-15T05:11:37.583Z,6.73
2023-03-15T05:14:32.000Z,4.13
2023-03-15T05:17:11.125Z,22.50
2023-03-15T05:19:48.715Z,7.40
2023-03-15T05:22:34.259Z,3.10
2023-03-15T05:25:25.462Z,3.67
2023-03-15T05:28:18.367Z,7.53
2023-03-15T05:31:00.481Z,7.43
2023-03-15T05:33:47.025Z,5.70
2023-03-15T05:36:33.629Z,8.00
2023-03-15T05:39:41.693Z,6.77
2023-03-15T05:42:14.784Z,5.20
2023-03-15T05:45:02.476Z,6.17
2023-03-15T05:47:46.638Z,5.47
2023-03-15T05:50:33.623Z,12.97
2023-03-15T05:53:21.742Z,10.50
2023-03-15T05:56:10.150Z,10.87
2023-03-15T05:59:07.054Z,10.20
2023-03-15T06:02:08.737Z,4.70
2023-03-15T06:04:45.818Z,7.90
2023-03-15T06:07:18.104Z,10.47
2023-03-15T06:09:46.696Z,6.30
2023-03-15T06:12:14.967Z,5.50
2023-03-15T06:14:42.783Z,5.87
2023-03-15T06:17:13.718Z,4.77
2023-03-15T06:19:44.632Z,6.53
2023-03-15T06:22:12.445Z,8.47
2023-03-15T06:24:51.787Z,6.80
2023-03-15T06:27:22.194Z,8.80
2023-03-15T06:29:51.329Z,4.43
2023-03-15T06:32:24.015Z,8.90
2023-03-15T06:34:52.130Z,11.10
2023-03-15T06:37:34.171Z,4.27
2023-03-15T06:40:06.002Z,10.20
2023-03-15T06:42:33.886Z,9.93
2023-03-15T06:45:02.224Z,14.97
2023-03-15T06:47:31.452Z,4.70
2023-03-15T06:49:59.701Z,3.33
2023-03-15T06:52:28.599Z,11.73
2023-03-15T06:54:56.608Z,11.30
2023-03-15T06:57:24.829Z,10.00
2023-03-15T06:59:54.086Z,8.60
2023-03-15T07:02:22.766Z,4.90
2023-03-15T07:04:52.771Z,10.23
2023-03-15T07:07:20.664Z,10.50
2023-03-15T07:09:48.891Z,11.50
2023-03-15T07:12:17.200Z,5.57
2023-03-15T07:14:46.629Z,10.23
2023-03-15T07:17:14.546Z,10.17
2023-03-15T07:19:55.495Z,12.17
2023-03-15T07:22:26.638Z,8.30
2023-03-15T07:24:54.437Z,7.90
2023-03-15T07:27:22.307Z,6.70
2023-03-15T07:29:50.253Z,8.20
2023-03-15T07:32:18.434Z,9.97
2023-03-15T07:34:46.246Z,8.57
2023-03-15T07:37:14.471Z,12.60
2023-03-15T07:39:43.733Z,12.80
2023-03-15T07:42:11.835Z,10.13
2023-03-15T07:44:42.197Z,15.10
2023-03-15T07:47:10.189Z,12.20
2023-03-15T07:49:38.004Z,14.13
2023-03-15T07:52:06.255Z,11.43
2023-03-15T07:54:34.474Z,8.60
2023-03-15T07:57:03.777Z,11.10
2023-03-15T07:59:32.135Z,8.77
2023-03-15T08:02:02.414Z,10.87
2023-03-15T08:04:30.941Z,10.33
2023-03-15T08:06:58.824Z,8.50
2023-03-15T08:09:26.741Z,11.30
2023-03-15T08:11:54.714Z,7.70
2023-03-15T08:14:24.594Z,10.00
2023-03-15T08:16:52.906Z,14.50
2023-03-15T08:19:22.140Z,7.80
2023-03-15T08:21:49.985Z,12.40
2023-03-15T08:24:18.446Z,10.83
2023-03-15T08:26:46.341Z,10.33
2023-03-15T08:29:14.193Z,9.40
2023-03-15T08:31:43.639Z,17.00
2023-03-15T08:34:12.188Z,13.50
2023-03-15T08:36:40.437Z,9.27
2023-03-15T08:39:08.458Z,14.63
2023-03-15T08:41:36.520Z,14.70
2023-03-15T08:44:04.370Z,10.83
2023-03-15T08:46:33.184Z,11.30
2023-03-15T08:49:03.141Z,10.37
2023-03-15T08:51:31.122Z,13.63
2023-03-15T08:53:59.173Z,13.73
2023-03-15T08:56:27.592Z,16.17
2023-03-15T08:58:55.833Z,11.40
2023-03-15T09:01:24.390Z,10.77
2023-03-15T09:03:52.233Z,11.80
2023-03-15T09:06:21.471Z,14.73
2023-03-15T09:08:49.284Z,16.47
2023-03-15T09:11:17.117Z,8.57
2023-03-15T09:13:44.931Z,11.63
2023-03-15T09:16:13.007Z,12.00
2023-03-15T09:18:44.028Z,11.43
2023-03-15T09:21:12.414Z,13.70
2023-03-15T09:23:41.635Z,12.63
2023-03-15T09:26:09.502Z,13.93
2023-03-15T09:28:37.319Z,14.40
2023-03-15T09:31:07.324Z,16.43
2023-03-15T09:33:35.191Z,17.00
2023-03-15T09:36:03.325Z,14.80
2023-03-15T09:38:31.218Z,15.80
2023-03-15T09:41:00.684Z,14.40
2023-03-15T09:43:41.216Z,13.50
2023-03-15T09:46:20.019Z,17.43
2023-03-15T09:48:52.761Z,16.30
2023-03-15T09:51:28.788Z,10.00
2023-03-15T09:53:58.503Z,9.63
2023-03-15T09:56:29.906Z,10.93
2023-03-15T09:58:59.454Z,21.30
2023-03-15T10:01:31.224Z,14.60
2023-03-15T10:03:59.392Z,15.27
2023-03-15T10:06:36.548Z,14.07
2023-03-15T10:09:11.803Z,16.13
2023-03-15T10:11:47.169Z,12.50
2023-03-15T10:14:24.286Z,11.50
2023-03-15T10:16:52.695Z,16.40
2023-03-15T10:19:27.187Z,14.37
2023-03-15T10:21:59.178Z,18.33
2023-03-15T10:24:32.773Z,10.77
2023-03-15T10:27:10.869Z,14.00
2023-03-15T10:29:39.004Z,12.73
2023-03-15T10:32:08.159Z,11.50
2023-03-15T10:34:35.961Z,11.97
2023-03-15T10:37:06.321Z,8.70
2023-03-15T10:39:34.184Z,9.53
2023-03-15T10:42:04.285Z,9.40
2023-03-15T10:44:37.996Z,11.90
2023-03-15T10:47:22.044Z,9.93
2023-03-15T10:49:51.676Z,11.63
2023-03-15T10:52:35.309Z,9.00
2023-03-15T10:55:06.684Z,8.90
2023-03-15T10:57:41.350Z,7.57
2023-03-15T11:00:24.990Z,6.70
2023-03-15T11:03:02.928Z,8.57
2023-03-15T11:05:32.307Z,5.40
2023-03-15T11:08:02.083Z,12.67
2023-03-15T11:10:35.280Z,7.80
2023-03-15T11:13:20.551Z,8.77
2023-03-15T11:15:54.496Z,8.47
2023-03-15T11:18:28.239Z,5.33
2023-03-15T11:20:58.026Z,7.60
2023-03-15T11:23:27.807Z,8.70
2023-03-15T11:25:56.172Z,6.63
2023-03-15T11:28:27.847Z,5.60
2023-03-15T11:30:56.887Z,8.77
2023-03-15T11:33:34.614Z,9.70
2023-03-15T11:36:04.715Z,8.03
2023-03-15T11:38:35.367Z,7.47
2023-03-15T11:41:08.267Z,8.33
2023-03-15T11:43:49.439Z,8.03
2023-03-15T11:46:26.242Z,9.23
2023-03-15T11:48:57.758Z,7.60
2023-03-15T11:51:25.653Z,9.70
2023-03-15T11:54:03.938Z,8.20
2023-03-15T11:56:47.681Z,9.60
2023-03-15T11:59:19.713Z,5.53
2023-03-15T12:01:49.753Z,6.60
2023-03-15T12:04:51.050Z,6.80
2023-03-15T12:07:31.372Z,6.43
2023-03-15T12:09:59.600Z,6.90
2023-03-15T12:12:38.669Z,7.10
2023-03-15T12:15:42.212Z,6.80
2023-03-15T12:18:15.537Z,4.27
2023-03-15T12:20:45.855Z,4.03
2023-03-15T12:23:30.530Z,4.97
2023-03-15T12:26:00.040Z,4.63
2023-03-15T12:28:31.527Z,5.37
2023-03-15T12:31:02.924Z,5.27
2023-03-15T12:33:32.796Z,6.63
2023-03-15T12:36:02.603Z,10.13
2023-03-15T12:38:37.464Z,8.80
2023-03-15T12:41:09.355Z,8.17
2023-03-15T12:43:39.178Z,8.17
2023-03-15T12:46:08.719Z,7.67
2023-03-15T12:48:36.717Z,8.00
2023-03-15T12:51:06.574Z,6.23
2023-03-15T12:53:42.632Z,9.03
2023-03-15T12:56:26.612Z,8.00
2023-03-15T12:58:57.521Z,7.17
2023-03-15T13:01:27.606Z,4.63
2023-03-15T13:03:56.834Z,4.20
2023-03-15T13:06:36.556Z,3.67
2023-03-15T13:09:12.125Z,3.00
2023-03-15T13:11:44.431Z,2.70
2023-03-15T13:14:26.992Z,2.93
2023-03-15T13:17:02.440Z,3.13
2023-03-15T13:19:32.923Z,4.20
2023-03-15T13:22:06.971Z,3.40
2023-03-15T13:24:43.493Z,3.07
2023-03-15T13:27:15.249Z,3.90
2023-03-15T13:29:43.184Z,4.13
2023-03-15T13:32:16.974Z,3.67
2023-03-15T13:34:46.902Z,3.87
2023-03-15T13:37:17.124Z,6.87
2023-03-15T13:39:56.865Z,4.13
2023-03-15T13:42:25.458Z,4.03
2023-03-15T13:45:12.323Z,3.37
2023-03-15T13:47:42.926Z,3.10
2023-03-15T13:50:16.021Z,3.03
2023-03-15T13:52:44.628Z,2.87
2023-03-15T13:55:15.245Z,2.37
2023-03-15T13:57:43.217Z,2.23
2023-03-15T14:00:12.559Z,2.03
2023-03-15T14:02:48.676Z,2.53
2023-03-15T14:05:18.882Z,3.00
2023-03-15T14:07:48.480Z,2.67
2023-03-15T14:10:28.987Z,3.10
2023-03-15T14:12:57.904Z,3.30
2023-03-15T14:15:27.642Z,3.27
2023-03-15T14:18:01.345Z,3.37
2023-03-15T14:20:33.635Z,3.10
2023-03-15T14:23:03.278Z,2.53
2023-03-15T14:25:35.600Z,2.80
2023-03-15T14:28:04.689Z,2.90
2023-03-15T14:30:34.944Z,2.43
2023-03-15T14:33:07.621Z,2.63
2023-03-15T14:35:44.487Z,2.50
2023-03-15T14:38:17.280Z,4.63
2023-03-15T14:40:45.246Z,3.50
2023-03-15T14:43:13.136Z,2.50
2023-03-15T14:45:42.892Z,2.97
2023-03-15T14:48:15.185Z,2.33
2023-03-15T14:50:45.852Z,5.90
2023-03-15T14:53:17.557Z,6.57
2023-03-15T14:55:45.409Z,3.30
2023-03-15T14:58:14.576Z,8.60
2023-03-15T15:00:42.956Z,8.43
2023-03-15T15:03:17.954Z,2.47
2023-03-15T15:05:46.458Z,4.27
2023-03-15T15:08:16.107Z,4.00
2023-03-15T15:10:46.478Z,3.83
2023-03-15T15:13:17.218Z,3.07
2023-03-15T15:15:55.178Z,6.67
2023-03-15T15:18:27.202Z,3.53
2023-03-15T15:20:56.210Z,2.37
2023-03-15T15:23:26.571Z,4.50
2023-03-15T15:25:56.911Z,2.47
2023-03-15T15:28:34.574Z,2.50
2023-03-15T15:31:04.133Z,4.30
2023-03-15T15:33:34.021Z,2.20
2023-03-15T15:36:02.234Z,2.30
2023-03-15T15:38:34.844Z,2.17
2023-03-15T15:41:03.025Z,2.50
2023-03-15T15:43:33.520Z,2.80
2023-03-15T15:46:02.970Z,2.27
2023-03-15T15:48:31.065Z,2.03
2023-03-15T15:51:00.305Z,2.20
2023-03-15T15:53:30.790Z,1.67
2023-03-15T15:55:59.458Z,4.80
2023-03-15T15:58:27.323Z,2.20
2023-03-15T16:00:55.154Z,1.70
2023-03-15T16:03:23.021Z,1.50
2023-03-15T16:05:52.050Z,1.97
2023-03-15T16:08:23.492Z,1.70
2023-03-15T16:10:51.437Z,4.20
2023-03-15T16:13:22.663Z,1.93
2023-03-15T16:15:50.493Z,1.90
2023-03-15T16:18:18.991Z,4.40
2023-03-15T16:20:47.014Z,2.40
2023-03-15T16:23:18.976Z,2.70
2023-03-15T16:25:50.185Z,3.23
2023-03-15T16:28:18.426Z,4.20
2023-03-15T16:30:50.325Z,6.10
2023-03-15T16:33:20.062Z,3.50
2023-03-15T16:35:50.026Z,3.27
2023-03-15T16:38:24.237Z,2.67
2023-03-15T16:40:54.036Z,2.77
2023-03-15T16:43:21.980Z,2.70
2023-03-15T16:45:49.804Z,10.60
2023-03-15T16:48:17.936Z,2.50
2023-03-15T16:50:45.908Z,2.40
2023-03-15T16:53:14.036Z,2.60
2023-03-15T16:55:42.387Z,3.80
2023-03-15T16:58:19.969Z,2.17
2023-03-15T17:00:48.496Z,2.13
2023-03-15T17:03:17.688Z,2.13
2023-03-15T17:05:46.954Z,2.30
2023-03-15T17:08:17.372Z,3.47
2023-03-15T17:10:45.671Z,2.93
2023-03-15T17:13:15.571Z,3.10
2023-03-15T17:15:44.875Z,2.23
2023-03-15T17:18:16.599Z,2.30
2023-03-15T17:20:44.835Z,3.67
2023-03-15T17:23:13.653Z,3.17
2023-03-15T17:25:41.566Z,5.90
2023-03-15T17:28:09.474Z,3.23
2023-03-15T17:30:38.610Z,4.37
2023-03-15T17:33:08.029Z,6.83
2023-03-15T17:35:37.626Z,5.83
2023-03-15T17:38:06.686Z,5.43
2023-03-15T17:40:36.652Z,2.60
2023-03-15T17:43:05.435Z,4.90
2023-03-15T17:45:34.630Z,5.00
2023-03-15T17:48:03.113Z,4.27
2023-03-15T17:50:34.581Z,3.83
2023-03-15T17:53:03.978Z,3.93
2023-03-15T17:55:34.814Z,3.70
2023-03-15T17:58:03.556Z,4.23
2023-03-15T18:00:32.678Z,3.77
2023-03-15T18:03:01.560Z,8.40
2023-03-15T18:05:30.468Z,9.20
2023-03-15T18:08:00.498Z,5.50
2023-03-15T18:10:33.291Z,6.90
2023-03-15T18:13:01.161Z,9.00
2023-03-15T18:15:29.415Z,7.83
2023-03-15T18:17:57.243Z,4.43
2023-03-15T18:20:25.984Z,10.57
2023-03-15T18:22:53.985Z,9.43
2023-03-15T18:25:25.168Z,7.10
2023-03-15T18:27:54.659Z,8.40
2023-03-15T18:30:24.823Z,8.40
2023-03-15T18:32:53.634Z,7.33
2023-03-15T18:35:23.448Z,14.00
2023-03-15T18:37:51.314Z,10.87
2023-03-15T18:40:20.257Z,8.10
2023-03-15T18:42:49.860Z,7.50
2023-03-15T18:45:19.707Z,8.70
2023-03-15T18:47:47.953Z,9.70
2023-03-15T18:50:16.398Z,9.00
2023-03-15T18:52:44.354Z,9.93
2023-03-15T18:55:13.870Z,7.90
2023-03-15T18:57:42.944Z,6.87
2023-03-15T19:00:14.199Z,5.07
2023-03-15T19:02:42.733Z,5.13
2023-03-15T19:05:11.784Z,8.10
2023-03-15T19:07:39.871Z,6.87
2023-03-15T19:10:09.527Z,7.13
2023-03-15T19:12:37.548Z,8.50
2023-03-15T19:15:05.928Z,6.93
2023-03-15T19:17:35.112Z,7.30
2023-03-15T19:20:04.009Z,8.20
2023-03-15T19:22:31.906Z,7.70
2023-03-15T19:24:59.717Z,7.93
2023-03-15T19:27:27.623Z,5.93
2023-03-15T19:29:55.864Z,3.37
2023-03-15T19:32:24.340Z,7.27
2023-03-15T19:34:53.928Z,5.70
2023-03-15T19:37:22.551Z,6.43
2023-03-15T19:39:50.834Z,10.13
2023-03-15T19:42:19.517Z,4.37
2023-03-15T19:44:48.469Z,4.30
2023-03-15T19:47:16.330Z,3.80
2023-03-15T19:49:44.122Z,4.90
2023-03-15T19:52:15.710Z,4.77
2023-03-15T19:54:43.568Z,5.83
2023-03-15T19:57:11.871Z,5.17
2023-03-15T19:59:41.639Z,3.50
2023-03-15T20:02:11.262Z,5.33
2023-03-15T20:04:39.321Z,4.00
2023-03-15T20:07:11.000Z,3.70
2023-03-15T20:09:41.710Z,4.73
2023-03-15T20:12:12.350Z,7.00
2023-03-15T20:14:40.870Z,7.60
2023-03-15T20:17:09.115Z,4.50
2023-03-15T20:19:37.130Z,4.30
2023-03-15T20:22:05.084Z,6.70
2023-03-15T20:24:34.665Z,4.17
2023-03-15T20:27:04.782Z,9.33
2023-03-15T20:29:33.485Z,6.63
2023-03-15T20:32:01.590Z,8.30
2023-03-15T20:34:29.566Z,7.83
2023-03-15T20:36:57.419Z,6.37
2023-03-15T20:39:25.884Z,6.97
2023-03-15T20:41:53.824Z,4.83
2023-03-15T20:44:23.512Z,6.27
2023-03-15T20:46:54.956Z,6.37
2023-03-15T20:49:23.285Z,5.83
2023-03-15T20:51:51.203Z,3.60
2023-03-15T20:54:19.012Z,2.20
2023-03-15T20:56:46.807Z,2.47
2023-03-15T20:59:15.054Z,1.97
2023-03-15T21:01:44.292Z,3.90
2023-03-15T21:04:12.124Z,3.47
2023-03-15T21:06:39.951Z,3.87
2023-03-15T21:09:08.029Z,3.80
2023-03-15T21:11:35.846Z,3.97
2023-03-15T21:14:03.912Z,5.47
2023-03-15T21:16:33.416Z,5.70
2023-03-15T21:19:02.812Z,3.70
2023-03-15T21:21:30.881Z,5.00
2023-03-15T21:23:58.769Z,5.20
2023-03-15T21:26:26.601Z,4.13
2023-03-15T21:28:54.482Z,5.17
2023-03-15T21:31:22.427Z,4.80
2023-03-15T21:33:51.007Z,3.10
2023-03-15T21:36:20.247Z,4.77
2023-03-15T21:38:48.346Z,3.30
2023-03-15T21:41:16.339Z,2.87
2023-03-15T21:43:44.246Z,3.47
2023-03-15T21:46:14.087Z,3.00
2023-03-15T21:48:42.706Z,3.63
2023-03-15T21:51:14.752Z,3.00
2023-03-15T21:53:46.304Z,3.80
2023-03-15T21:56:14.671Z,5.43
2023-03-15T21:58:42.845Z,3.37
2023-03-15T22:01:13.999Z,2.77
2023-03-15T22:03:44.225Z,4.10
2023-03-15T22:06:13.074Z,2.57
2023-03-15T22:08:41.216Z,3.00
2023-03-15T22:11:10.686Z,2.97
2023-03-15T22:13:39.788Z,4.20
2023-03-15T22:16:08.125Z,8.33
2023-03-15T22:18:36.498Z,3.50
2023-03-15T22:21:04.890Z,3.57
2023-03-15T22:23:32.894Z,4.33
2023-03-15T22:26:00.778Z,4.97
2023-03-15T22:28:29.997Z,2.97
2023-03-15T22:30:57.985Z,4.20
2023-03-15T22:33:25.861Z,6.13
2023-03-15T22:35:55.677Z,6.80
2023-03-15T22:38:24.224Z,8.73
2023-03-15T22:41:00.256Z,3.43
2023-03-15T22:43:28.094Z,7.20
2023-03-15T22:45:57.362Z,6.10
2023-03-15T22:48:26.097Z,4.53
2023-03-15T22:50:59.110Z,4.93
2023-03-15T22:53:26.934Z,4.60
2023-03-15T22:55:55.315Z,4.87
2023-03-15T22:58:23.748Z,8.10
2023-03-15T23:00:51.624Z,4.37
2023-03-15T23:03:20.862Z,4.83
2023-03-15T23:05:48.715Z,4.03
2023-03-15T23:08:16.544Z,7.13
2023-03-15T23:10:44.421Z,9.30
2023-03-15T23:13:12.628Z,4.53
2023-03-15T23:15:40.578Z,4.93
2023-03-15T23:18:08.696Z,3.63
2023-03-15T23:20:38.574Z,4.33
2023-03-15T23:23:07.346Z,5.80
2023-03-15T23:25:38.894Z,6.10
2023-03-15T23:28:07.197Z,4.00
2023-03-15T23:30:36.128Z,3.90
2023-03-15T23:33:04.347Z,5.60
2023-03-15T23:35:32.512Z,3.67
2023-03-15T23:38:01.894Z,9.20
2023-03-15T23:40:30.136Z,4.00
2023-03-15T23:42:59.722Z,5.33
2023-03-15T23:45:29.802Z,6.33
2023-03-15T23:47:58.887Z,5.77
2023-03-15T23:50:27.465Z,6.50
2023-03-15T23:52:56.633Z,7.93
2023-03-15T23:55:26.015Z,7.47
2023-03-15T23:57:54.054Z,6.50
